Avondale, Kentucky
Current Conditions -  °F | °C
As of 4:53 AM on Saturday 25 Oct 2014 (Local Time) from KPAH Reporting Station
Overcast Overcast  
Wind Chill: 58°   Ceiling: 6000
Heat Index: 58°   Visibility: 8mi
Dew Point: 53°   Wind: 8mph
Humidity: 84%   Direction: 210°SSW
Pressure: 30.03"   Gusts: NA
Location:  37.0331°N, 88.716°W
Report Text: KPAH 250953Z AUTO 21007KT 8SM OVC060 14/12 A3003 RMK AO2 SLP164 T01440117
Loading
Personal Weather Stations






























Interactive Weather Map
Tropical Storm Tracking
New forecast layout! Learn more

10-Day Weather Forecast

Advertisements
Track Severe Weather on mobile